Time;durP1;ratioP1;P1;durP2;ratioP2;P2;SDS_P1;SDS_P2;PMS_P1;PMS_P2;Temp;Humidity;BMP_temperature;BMP_pressure;BME280_temperature;BME280_humidity;BME280_pressure;Samples;Min_cycle;Max_cycle;Signal;HPM_P1;HPM_P2
2022/05/30 00:00:24;;;;;;;2.75;1.92;;;10.00;99.90;;;;;;5029418;28;20197;-62
2022/05/30 00:02:52;;;;;;;4.75;1.42;;;10.00;99.90;;;;;;5015118;28;20216;-62
2022/05/30 00:05:21;;;;;;;8.27;1.63;;;10.00;99.90;;;;;;5021134;28;20201;-62
2022/05/30 00:07:48;;;;;;;9.93;1.95;;;10.10;99.90;;;;;;5011079;28;20201;-62
2022/05/30 00:10:17;;;;;;;7.28;1.75;;;10.00;99.90;;;;;;5022497;28;20221;-62
2022/05/30 00:12:44;;;;;;;10.43;2.00;;;10.00;99.90;;;;;;5004935;28;20202;-62
2022/05/30 00:15:15;;;;;;;4.55;1.38;;;10.00;99.90;;;;;;5014210;28;20210;-62
2022/05/30 00:17:42;;;;;;;6.07;1.70;;;10.00;99.90;;;;;;5032661;28;20349;-62
2022/05/30 00:20:11;;;;;;;16.43;1.90;;;10.00;99.90;;;;;;5002981;28;20206;-62
2022/05/30 00:22:38;;;;;;;8.55;1.70;;;10.00;99.90;;;;;;5020777;28;20205;-62
2022/05/30 00:25:06;;;;;;;4.90;1.80;;;10.00;99.90;;;;;;5020609;28;20210;-62
2022/05/30 00:27:34;;;;;;;8.27;1.70;;;10.00;99.90;;;;;;5003744;28;20216;-63
2022/05/30 00:30:01;;;;;;;7.75;1.95;;;9.90;99.90;;;;;;4998422;28;20335;-62
2022/05/30 00:32:28;;;;;;;6.90;1.65;;;9.90;99.90;;;;;;5028600;28;20208;-62
2022/05/30 00:34:55;;;;;;;8.02;1.58;;;9.90;99.90;;;;;;5016501;28;20198;-62
2022/05/30 00:37:22;;;;;;;4.10;1.10;;;9.80;99.90;;;;;;5017076;28;20209;-61
2022/05/30 00:39:48;;;;;;;8.77;1.83;;;9.80;99.90;;;;;;5019710;28;20206;-62
2022/05/30 00:42:18;;;;;;;5.43;1.55;;;9.80;99.90;;;;;;5028802;28;20229;-62
2022/05/30 00:44:48;;;;;;;4.18;1.38;;;9.70;99.90;;;;;;5008386;28;20210;-62
2022/05/30 00:47:16;;;;;;;9.13;1.88;;;9.90;99.90;;;;;;5014430;28;20255;-61
2022/05/30 00:49:45;;;;;;;5.40;1.47;;;9.80;99.90;;;;;;5018660;28;20232;-62
2022/05/30 00:52:16;;;;;;;4.13;1.73;;;9.80;99.90;;;;;;5006102;28;20229;-61
2022/05/30 00:54:47;;;;;;;5.70;1.57;;;9.80;99.90;;;;;;5033717;28;20196;-62
2022/05/30 00:57:23;;;;;;;3.40;1.47;;;9.80;99.90;;;;;;5015435;28;20209;-62
2022/05/30 00:59:56;;;;;;;5.40;1.50;;;9.80;99.90;;;;;;5032411;28;20265;-62
2022/05/30 01:02:25;;;;;;;8.98;1.70;;;9.80;99.90;;;;;;5005862;28;20220;-62
2022/05/30 01:07:40;;;;;;;6.07;1.37;;;10.40;99.90;;;;;;5011932;28;20213;-62
2022/05/30 01:10:09;;;;;;;8.17;1.53;;;9.80;99.90;;;;;;5015169;28;20230;-62
2022/05/30 01:12:39;;;;;;;3.83;1.13;;;9.70;99.90;;;;;;5015458;28;20224;-62
2022/05/30 01:15:10;;;;;;;10.63;1.38;;;9.70;99.90;;;;;;5007579;28;20201;-62
2022/05/30 01:17:48;;;;;;;3.87;1.97;;;9.70;99.90;;;;;;5016457;28;20241;-61
2022/05/30 01:20:24;;;;;;;4.77;1.40;;;10.00;99.90;;;;;;5017724;28;20209;-62
2022/05/30 01:23:10;;;;;;;5.43;1.50;;;9.70;99.90;;;;;;5018375;28;20205;-61
2022/05/30 01:25:55;;;;;;;6.60;1.20;;;9.70;99.90;;;;;;5016049;28;20200;-62
2022/05/30 01:28:40;;;;;;;5.23;1.20;;;9.50;99.90;;;;;;5022700;28;20626;-62
2022/05/30 01:31:08;;;;;;;3.30;1.17;;;9.70;99.90;;;;;;5017733;28;20208;-62
2022/05/30 01:33:35;;;;;;;3.77;1.30;;;9.80;99.90;;;;;;5008716;28;20210;-62
2022/05/30 01:36:02;;;;;;;3.73;1.37;;;9.60;99.90;;;;;;5019396;28;20201;-62
2022/05/30 01:38:29;;;;;;;4.77;1.33;;;9.80;99.90;;;;;;5013942;28;20224;-62
2022/05/30 01:40:57;;;;;;;7.13;1.47;;;9.80;99.90;;;;;;5024623;28;20680;-62
2022/05/30 01:43:24;;;;;;;3.97;1.17;;;9.60;99.90;;;;;;5024628;28;20621;-61
2022/05/30 01:45:52;;;;;;;4.27;1.90;;;9.60;99.90;;;;;;5007419;28;20568;-62
2022/05/30 01:48:19;;;;;;;14.77;2.00;;;9.30;99.90;;;;;;5011328;28;20213;-62
2022/05/30 01:50:47;;;;;;;8.13;1.50;;;9.60;99.90;;;;;;5010902;28;20225;-62
2022/05/30 01:53:14;;;;;;;8.68;1.90;;;9.60;99.90;;;;;;5027780;28;20205;-62
2022/05/30 01:55:41;;;;;;;7.27;1.43;;;9.60;99.90;;;;;;5015702;28;20198;-62
2022/05/30 01:58:08;;;;;;;3.93;1.17;;;9.30;99.90;;;;;;4994614;28;20667;-62
2022/05/30 02:00:36;;;;;;;7.23;2.03;;;9.50;99.90;;;;;;5021505;28;20211;-62
2022/05/30 02:03:05;;;;;;;6.43;1.30;;;9.50;99.90;;;;;;5025564;28;20577;-62
2022/05/30 02:05:33;;;;;;;6.90;1.90;;;9.40;99.90;;;;;;5000322;28;20209;-62
2022/05/30 02:08:01;;;;;;;9.87;1.70;;;9.40;99.90;;;;;;5015770;28;20980;-62
2022/05/30 02:10:29;;;;;;;8.90;2.00;;;9.40;99.90;;;;;;5019920;28;20576;-61
2022/05/30 02:12:56;;;;;;;4.47;1.73;;;9.40;99.90;;;;;;5005649;28;20213;-62
2022/05/30 02:15:23;;;;;;;9.37;1.70;;;9.10;99.90;;;;;;5018594;28;20263;-61
2022/05/30 02:17:49;;;;;;;3.30;1.27;;;9.30;99.90;;;;;;5024348;28;20233;-62
2022/05/30 02:20:17;;;;;;;10.10;2.00;;;8.90;99.90;;;;;;5014842;28;20205;-62
2022/05/30 02:22:45;;;;;;;7.17;1.50;;;9.20;99.90;;;;;;5022331;28;20292;-62
2022/05/30 02:25:13;;;;;;;7.80;1.87;;;9.20;99.90;;;;;;5009777;28;20204;-62
2022/05/30 02:27:41;;;;;;;5.57;1.60;;;9.20;99.90;;;;;;5030063;28;20746;-62
2022/05/30 02:30:10;;;;;;;8.07;1.73;;;9.10;99.90;;;;;;5005179;28;20405;-62
2022/05/30 02:32:37;;;;;;;10.10;1.67;;;9.00;99.90;;;;;;5022937;28;20206;-62
2022/05/30 02:37:51;;;;;;;8.87;1.57;;;9.00;99.90;;;;;;5027486;28;20296;-61
2022/05/30 02:40:18;;;;;;;7.40;1.70;;;9.00;99.90;;;;;;5027568;28;20304;-61
2022/05/30 02:42:45;;;;;;;12.30;1.87;;;8.80;99.90;;;;;;5014532;28;20216;-62
2022/05/30 02:45:12;;;;;;;5.80;1.10;;;8.90;99.90;;;;;;5021793;28;20232;-62
2022/05/30 02:47:39;;;;;;;4.67;1.50;;;8.90;99.90;;;;;;5017969;28;20869;-61
2022/05/30 02:50:06;;;;;;;1.97;1.20;;;10.50;99.90;;;;;;5010911;28;20240;-62
2022/05/30 02:52:33;;;;;;;5.33;1.70;;;8.70;99.90;;;;;;5026365;28;20342;-61
2022/05/30 02:55:01;;;;;;;6.13;1.40;;;8.70;99.90;;;;;;5029029;28;20865;-62
2022/05/30 02:57:28;;;;;;;5.50;1.50;;;8.60;99.90;;;;;;5022222;28;20197;-61
2022/05/30 02:59:55;;;;;;;6.07;1.70;;;8.60;99.90;;;;;;5008047;28;20210;-61
2022/05/30 03:02:22;;;;;;;5.63;1.60;;;8.60;99.90;;;;;;5019688;28;20209;-62
2022/05/30 03:04:49;;;;;;;8.90;1.57;;;8.50;99.90;;;;;;5025767;28;20212;-61
2022/05/30 03:07:16;;;;;;;4.27;1.23;;;8.50;99.90;;;;;;5008059;28;20214;-61
2022/05/30 03:09:44;;;;;;;5.30;1.40;;;8.60;99.90;;;;;;5025861;28;20232;-61
2022/05/30 03:12:12;;;;;;;6.53;1.57;;;8.60;99.90;;;;;;5019651;28;20741;-62
2022/05/30 03:14:39;;;;;;;4.40;1.50;;;8.60;99.90;;;;;;5014444;28;20198;-61
2022/05/30 03:17:06;;;;;;;4.83;1.60;;;8.60;99.90;;;;;;4998540;28;20690;-62
2022/05/30 03:19:33;;;;;;;8.07;1.60;;;8.60;99.90;;;;;;4995807;28;20226;-62
2022/05/30 03:22:00;;;;;;;9.43;1.80;;;8.60;99.90;;;;;;5010099;28;20201;-62
2022/05/30 03:24:27;;;;;;;3.53;1.57;;;8.60;99.90;;;;;;5003539;28;20205;-62
2022/05/30 03:26:54;;;;;;;2.30;1.00;;;8.60;99.90;;;;;;5011655;28;21253;-62
2022/05/30 03:29:23;;;;;;;5.70;1.40;;;8.70;99.90;;;;;;5028651;28;20788;-61
2022/05/30 03:31:50;;;;;;;8.13;1.57;;;8.70;99.90;;;;;;4999443;28;20735;-62
2022/05/30 03:34:17;;;;;;;5.43;1.47;;;7.00;99.90;;;;;;5017917;28;20202;-61
2022/05/30 03:36:43;;;;;;;4.93;1.60;;;11.20;99.90;;;;;;5012852;28;20213;-61
2022/05/30 03:39:10;;;;;;;3.23;1.40;;;8.60;99.90;;;;;;5013175;28;20328;-62
2022/05/30 03:41:37;;;;;;;3.10;1.17;;;8.90;99.90;;;;;;5005458;28;20237;-62
2022/05/30 03:44:04;;;;;;;5.33;1.40;;;8.60;99.90;;;;;;5020822;28;20254;-62
2022/05/30 03:46:33;;;;;;;3.63;1.37;;;8.60;99.90;;;;;;5019172;28;20201;-61
2022/05/30 03:49:00;;;;;;;1.10;1.00;;;8.60;99.90;;;;;;5014685;28;20221;-59
2022/05/30 03:51:27;;;;;;;2.07;1.20;;;8.60;99.90;;;;;;5008664;28;20221;-62
2022/05/30 03:53:54;;;;;;;3.10;1.30;;;8.70;99.90;;;;;;4999032;28;20733;-61
2022/05/30 03:56:21;;;;;;;4.30;1.70;;;8.60;99.90;;;;;;4997356;28;20678;-62
2022/05/30 03:58:49;;;;;;;4.27;1.30;;;8.80;99.90;;;;;;5008870;28;20193;-61
2022/05/30 04:01:16;;;;;;;4.33;1.80;;;8.60;99.90;;;;;;5012542;28;20243;-61
2022/05/30 04:03:44;;;;;;;10.07;1.90;;;8.60;99.90;;;;;;5022312;28;20209;-61
2022/05/30 04:06:11;;;;;;;2.63;1.53;;;8.70;99.90;;;;;;5017785;28;20206;-62
2022/05/30 04:08:38;;;;;;;5.90;1.70;;;8.70;99.90;;;;;;5005429;28;21054;-62
2022/05/30 04:11:05;;;;;;;5.17;1.70;;;8.70;99.90;;;;;;5002516;28;20419;-62
2022/05/30 04:13:32;;;;;;;3.27;1.50;;;8.70;99.90;;;;;;5019276;28;20205;-61
2022/05/30 04:16:07;;;;;;;5.97;1.47;;;8.80;99.90;;;;;;5009387;28;20209;-62
2022/05/30 04:18:34;;;;;;;3.53;1.53;;;8.80;99.90;;;;;;5029180;28;20230;-62
2022/05/30 04:21:02;;;;;;;8.13;1.70;;;8.80;99.90;;;;;;5008563;28;20323;-62
2022/05/30 04:23:29;;;;;;;6.43;1.50;;;8.80;99.90;;;;;;5022208;28;20224;-61
2022/05/30 04:25:56;;;;;;;4.33;1.27;;;8.80;99.90;;;;;;5010012;28;20582;-62
2022/05/30 04:28:23;;;;;;;3.67;1.40;;;8.80;99.90;;;;;;5018038;28;20202;-62
2022/05/30 04:30:50;;;;;;;3.60;1.60;;;8.80;99.90;;;;;;5030321;28;20339;-61
2022/05/30 04:33:17;;;;;;;4.70;1.47;;;8.80;99.90;;;;;;5003810;28;20676;-62
2022/05/30 04:35:44;;;;;;;3.37;1.33;;;8.90;99.90;;;;;;5010114;28;20201;-62
2022/05/30 04:38:12;;;;;;;4.13;1.60;;;8.90;99.90;;;;;;5017005;28;20886;-61
2022/05/30 04:40:39;;;;;;;6.47;1.60;;;8.60;99.90;;;;;;4995363;28;20206;-61
2022/05/30 04:43:06;;;;;;;6.03;1.60;;;9.00;99.90;;;;;;5015636;28;21945;-61
2022/05/30 04:45:33;;;;;;;4.83;1.60;;;;;;;;;;5019250;28;20587;-61
2022/05/30 04:48:01;;;;;;;3.37;1.63;;;9.20;99.90;;;;;;5015831;28;20201;-61
2022/05/30 04:50:28;;;;;;;10.37;2.00;;;9.10;99.90;;;;;;5021017;28;20226;-61
2022/05/30 04:52:55;;;;;;;7.27;1.30;;;9.20;99.90;;;;;;5026501;28;20288;-62
2022/05/30 04:55:23;;;;;;;4.07;1.23;;;9.20;99.90;;;;;;5081802;22;20625;-62
2022/05/30 04:57:52;;;;;;;3.23;1.57;;;9.10;99.90;;;;;;5003965;28;20221;-62
2022/05/30 05:00:24;;;;;;;5.93;1.53;;;9.60;99.90;;;;;;5032790;28;20340;-62
2022/05/30 05:02:53;;;;;;;4.87;1.40;;;9.30;99.90;;;;;;5034069;28;20228;-62
2022/05/30 05:05:20;;;;;;;2.23;1.60;;;9.50;99.90;;;;;;5030297;28;20232;-62
2022/05/30 05:07:50;;;;;;;9.23;1.70;;;9.30;99.90;;;;;;5032421;28;20205;-62
2022/05/30 05:10:35;;;;;;;7.87;1.57;;;9.40;99.90;;;;;;5041443;28;20224;-62
2022/05/30 05:13:02;;;;;;;2.13;1.23;;;9.20;99.90;;;;;;5010576;28;20671;-62
2022/05/30 05:15:29;;;;;;;4.30;1.40;;;9.10;99.90;;;;;;5031754;28;20750;-62
2022/05/30 05:17:55;;;;;;;7.57;1.80;;;9.30;99.90;;;;;;5030688;28;20204;-61
2022/05/30 05:20:23;;;;;;;5.27;1.50;;;9.30;99.90;;;;;;5037132;28;20857;-63
2022/05/30 05:22:50;;;;;;;6.20;1.30;;;9.30;99.90;;;;;;5043339;28;21411;-62
2022/05/30 05:25:17;;;;;;;4.27;1.33;;;9.30;99.90;;;;;;5018410;28;20668;-62
2022/05/30 05:27:45;;;;;;;3.07;1.27;;;9.00;99.90;;;;;;5018701;28;20211;-61
2022/05/30 05:30:13;;;;;;;2.33;1.30;;;9.30;99.90;;;;;;5008354;28;20599;-61
2022/05/30 05:32:40;;;;;;;2.20;1.40;;;9.30;99.90;;;;;;5041692;28;20307;-61
2022/05/30 05:35:08;;;;;;;1.57;1.23;;;9.30;99.90;;;;;;5028199;28;20205;-61
2022/05/30 05:37:35;;;;;;;4.50;1.40;;;9.40;99.90;;;;;;5038363;28;20205;-61
2022/05/30 05:40:02;;;;;;;6.87;1.60;;;9.40;99.90;;;;;;5036833;28;20205;-62
2022/05/30 05:42:29;;;;;;;2.00;1.30;;;9.40;99.90;;;;;;5024945;28;20300;-61
2022/05/30 05:44:57;;;;;;;4.30;1.73;;;9.40;99.90;;;;;;5033237;28;20207;-61
2022/05/30 05:47:24;;;;;;;3.43;1.40;;;9.40;99.90;;;;;;5041221;28;20206;-62
2022/05/30 05:49:51;;;;;;;8.77;1.43;;;9.30;99.90;;;;;;5042042;28;20201;-61
2022/05/30 05:52:18;;;;;;;3.53;1.43;;;9.50;99.90;;;;;;5033589;28;21391;-62
2022/05/30 05:54:44;;;;;;;1.90;1.20;;;9.20;99.90;;;;;;5034169;28;20212;-61
2022/05/30 05:57:11;;;;;;;1.90;1.70;;;9.60;99.90;;;;;;5046285;28;20246;-62
2022/05/30 05:59:38;;;;;;;1.90;1.40;;;9.60;99.90;;;;;;5028607;28;20205;-62
2022/05/30 06:02:08;;;;;;;4.27;1.13;;;9.60;99.90;;;;;;5038460;28;20240;-62
2022/05/30 06:04:35;;;;;;;6.43;1.97;;;9.60;99.90;;;;;;5050338;28;20212;-62
2022/05/30 06:07:02;;;;;;;2.20;1.00;;;9.70;99.90;;;;;;5038317;28;20200;-62
2022/05/30 06:09:29;;;;;;;1.73;1.10;;;9.70;99.90;;;;;;5046579;28;20216;-62
2022/05/30 06:11:58;;;;;;;2.23;1.20;;;9.80;99.90;;;;;;5038761;28;20221;-62
2022/05/30 06:14:25;;;;;;;5.03;1.10;;;9.60;99.90;;;;;;5025972;28;21082;-62
2022/05/30 06:16:52;;;;;;;6.00;1.50;;;9.80;99.90;;;;;;5039421;28;20208;-61
2022/05/30 06:19:21;;;;;;;5.03;1.57;;;9.70;99.90;;;;;;5039081;28;20704;-61
2022/05/30 06:21:48;;;;;;;3.50;1.50;;;9.80;99.90;;;;;;5046425;28;20215;-62
2022/05/30 06:24:15;;;;;;;3.80;1.23;;;9.80;99.90;;;;;;5032572;28;21121;-62
2022/05/30 06:26:44;;;;;;;5.33;1.37;;;12.40;99.90;;;;;;5043443;28;20211;-62
2022/05/30 06:29:12;;;;;;;5.63;1.20;;;9.90;99.90;;;;;;5023520;28;20842;-62
2022/05/30 06:31:39;;;;;;;2.20;1.20;;;10.00;99.90;;;;;;5042422;28;20244;-61
2022/05/30 06:34:05;;;;;;;3.27;1.13;;;10.00;99.90;;;;;;5038155;28;20657;-61
2022/05/30 06:36:35;;;;;;;3.37;1.87;;;10.00;99.90;;;;;;5043506;28;20214;-62
2022/05/30 06:39:02;;;;;;;3.60;1.43;;;10.10;99.90;;;;;;5045327;28;20200;-62
2022/05/30 06:41:31;;;;;;;2.93;1.33;;;10.00;99.90;;;;;;5033396;28;20671;-61
2022/05/30 06:44:02;;;;;;;2.23;1.40;;;10.00;99.90;;;;;;5031493;28;20205;-62
2022/05/30 06:46:29;;;;;;;3.67;1.80;;;10.10;99.90;;;;;;5034524;28;20209;-62
2022/05/30 06:48:56;;;;;;;4.23;1.73;;;10.00;99.90;;;;;;5042130;28;20206;-62
2022/05/30 06:51:25;;;;;;;1.33;1.13;;;10.10;99.90;;;;;;5042366;28;20224;-62
2022/05/30 06:53:53;;;;;;;2.83;1.20;;;10.20;99.90;;;;;;5048384;28;20193;-62
2022/05/30 06:56:23;;;;;;;6.37;1.40;;;10.20;99.90;;;;;;5030754;28;21085;-62
2022/05/30 06:58:51;;;;;;;3.33;1.57;;;10.30;99.90;;;;;;5051756;28;20208;-64
2022/05/30 07:01:19;;;;;;;5.93;1.53;;;10.30;99.90;;;;;;5022919;28;20215;-61
2022/05/30 07:03:46;;;;;;;3.20;1.40;;;10.50;99.90;;;;;;5036638;28;20199;-61
2022/05/30 07:06:16;;;;;;;1.77;1.47;;;10.50;99.90;;;;;;5040009;28;20681;-62
2022/05/30 07:08:46;;;;;;;4.93;1.73;;;10.40;99.90;;;;;;5047705;28;20605;-61
2022/05/30 07:11:14;;;;;;;2.57;1.20;;;10.50;99.90;;;;;;5038161;28;20286;-61
2022/05/30 07:13:41;;;;;;;3.85;1.23;;;10.50;99.90;;;;;;5039045;28;20208;-61
2022/05/30 07:16:09;;;;;;;4.67;1.20;;;10.50;99.90;;;;;;5023176;28;20737;-61
2022/05/30 07:18:37;;;;;;;2.60;1.10;;;10.60;99.90;;;;;;5033639;28;20205;-61
2022/05/30 07:21:08;;;;;;;1.33;0.90;;;10.50;99.90;;;;;;5046739;28;20221;-61
2022/05/30 07:23:37;;;;;;;1.53;0.83;;;10.70;99.90;;;;;;5037906;28;20225;-62
2022/05/30 07:26:07;;;;;;;3.13;1.10;;;10.60;99.90;;;;;;5039758;28;20292;-61
2022/05/30 07:28:35;;;;;;;1.27;1.17;;;11.90;99.90;;;;;;5033384;28;20201;-61
2022/05/30 07:31:06;;;;;;;3.60;0.60;;;10.70;99.90;;;;;;5018696;28;20231;-62
2022/05/30 07:33:34;;;;;;;3.67;0.93;;;9.00;99.90;;;;;;5035759;28;20312;-62
2022/05/30 07:36:02;;;;;;;1.20;0.60;;;10.90;99.90;;;;;;5048025;28;20201;-61
2022/05/30 07:38:29;;;;;;;3.30;0.70;;;10.80;99.90;;;;;;5041570;28;20205;-62
2022/05/30 07:40:55;;;;;;;0.60;0.60;;;11.00;99.90;;;;;;5043456;28;20209;-62
2022/05/30 07:43:23;;;;;;;2.78;0.75;;;11.10;99.90;;;;;;5033576;28;20712;-61
2022/05/30 07:45:51;;;;;;;5.22;0.73;;;11.20;99.90;;;;;;5032640;28;20853;-61
2022/05/30 07:48:19;;;;;;;1.40;1.00;;;11.30;99.90;;;;;;5014189;28;20219;-62
2022/05/30 07:50:46;;;;;;;1.98;0.90;;;11.40;99.90;;;;;;5050985;28;20221;-61
2022/05/30 07:53:13;;;;;;;2.47;1.17;;;11.30;99.90;;;;;;5034666;28;20223;-62
2022/05/30 07:55:40;;;;;;;1.00;0.63;;;11.40;99.90;;;;;;5048783;28;20700;-61
2022/05/30 07:58:07;;;;;;;1.33;0.60;;;11.30;99.90;;;;;;5026260;28;20335;-61
2022/05/30 08:00:36;;;;;;;2.53;0.95;;;11.30;99.90;;;;;;5039819;28;20206;-61
2022/05/30 08:03:05;;;;;;;2.30;0.93;;;11.40;99.90;;;;;;5024321;28;20224;-62
2022/05/30 08:05:32;;;;;;;3.47;0.77;;;11.40;99.90;;;;;;5037017;28;20351;-62
2022/05/30 08:07:59;;;;;;;3.55;1.05;;;11.50;99.90;;;;;;5041913;28;20221;-61
2022/05/30 08:10:26;;;;;;;4.68;0.90;;;11.40;99.90;;;;;;5040209;28;20590;-62
2022/05/30 08:12:53;;;;;;;3.03;1.10;;;11.50;99.90;;;;;;5035165;28;21501;-61
2022/05/30 08:15:20;;;;;;;1.08;0.80;;;11.20;99.90;;;;;;5050295;28;20216;-63
2022/05/30 08:17:47;;;;;;;1.92;1.10;;;11.50;99.90;;;;;;5028500;28;20800;-61
2022/05/30 08:20:16;;;;;;;3.20;0.88;;;11.50;99.90;;;;;;5037505;28;20208;-63
2022/05/30 08:22:44;;;;;;;0.80;0.80;;;11.40;99.90;;;;;;5047120;28;20213;-63
2022/05/30 08:25:15;;;;;;;2.80;0.88;;;11.50;99.90;;;;;;5036456;28;20210;-62
2022/05/30 08:27:42;;;;;;;1.02;0.70;;;11.70;99.90;;;;;;5036060;28;20716;-63
2022/05/30 08:30:11;;;;;;;2.05;0.57;;;11.60;99.90;;;;;;5048656;28;20212;-62
2022/05/30 08:32:40;;;;;;;1.63;0.80;;;11.60;99.90;;;;;;5025222;28;20231;-63
2022/05/30 08:35:10;;;;;;;2.05;0.85;;;11.60;99.90;;;;;;5015061;28;20252;-62
2022/05/30 08:37:38;;;;;;;2.85;0.90;;;11.70;99.90;;;;;;5046090;28;20311;-62
2022/05/30 08:42:53;;;;;;;1.02;0.70;;;12.10;99.90;;;;;;5046287;28;20216;-62
2022/05/30 08:45:23;;;;;;;0.82;0.50;;;12.00;99.90;;;;;;5041392;28;20229;-63
2022/05/30 08:47:52;;;;;;;1.50;0.80;;;12.00;99.90;;;;;;5022693;28;20228;-62
2022/05/30 08:50:26;;;;;;;0.55;0.50;;;12.20;99.90;;;;;;5018763;28;20233;-62
2022/05/30 08:53:27;;;;;;;2.55;0.77;;;12.10;99.90;;;;;;5043748;28;20232;-63
2022/05/30 08:55:58;;;;;;;1.13;0.90;;;12.80;99.90;;;;;;5032758;28;20236;-62
2022/05/30 08:58:37;;;;;;;0.88;0.73;;;12.20;99.90;;;;;;5035111;28;20849;-62
2022/05/30 09:01:07;;;;;;;2.58;0.75;;;12.30;99.90;;;;;;5045538;28;20201;-62
2022/05/30 09:03:37;;;;;;;1.45;0.73;;;12.20;99.90;;;;;;5033212;28;20791;-63
2022/05/30 09:06:09;;;;;;;4.18;0.73;;;12.10;99.90;;;;;;5012614;28;20220;-62
2022/05/30 09:08:42;;;;;;;3.13;0.82;;;12.30;99.90;;;;;;5045003;28;20207;-62
2022/05/30 09:11:21;;;;;;;2.10;0.70;;;12.10;99.90;;;;;;5042548;28;20753;-62
2022/05/30 09:13:52;;;;;;;3.17;0.73;;;12.00;99.90;;;;;;5022258;28;20581;-63
2022/05/30 09:16:24;;;;;;;1.80;0.70;;;12.00;99.90;;;;;;5037108;28;20228;-62
2022/05/30 09:18:53;;;;;;;1.27;0.70;;;12.00;99.90;;;;;;5024376;28;20211;-62
2022/05/30 09:21:21;;;;;;;0.75;0.70;;;12.00;99.90;;;;;;5030595;28;20209;-62
2022/05/30 09:23:50;;;;;;;3.30;0.80;;;11.90;99.90;;;;;;5034104;28;20193;-62
2022/05/30 09:26:22;;;;;;;0.70;0.70;;;11.80;99.90;;;;;;5046293;28;20658;-63
2022/05/30 09:28:51;;;;;;;2.15;0.90;;;11.90;99.90;;;;;;5028138;28;20208;-62
2022/05/30 09:31:24;;;;;;;3.60;0.65;;;11.80;99.90;;;;;;5046021;28;20235;-63
2022/05/30 09:33:53;;;;;;;3.42;0.88;;;11.60;99.90;;;;;;5028511;28;20669;-63
2022/05/30 09:36:22;;;;;;;1.98;0.85;;;11.90;99.90;;;;;;5053238;28;20200;-62
2022/05/30 09:38:57;;;;;;;1.35;0.75;;;11.80;99.90;;;;;;5026992;28;20208;-62
2022/05/30 09:41:27;;;;;;;1.15;0.73;;;11.80;99.90;;;;;;5047929;28;20222;-63
2022/05/30 09:43:58;;;;;;;2.30;0.90;;;11.80;99.90;;;;;;5025343;28;20216;-63
2022/05/30 09:46:31;;;;;;;1.00;0.80;;;11.70;99.90;;;;;;5039621;28;20686;-62
2022/05/30 09:49:08;;;;;;;1.85;0.60;;;11.70;99.90;;;;;;5041583;28;20207;-62
2022/05/30 09:51:39;;;;;;;3.85;1.23;;;11.80;99.90;;;;;;5037467;28;20891;-62
2022/05/30 09:54:09;;;;;;;2.08;0.77;;;11.50;99.90;;;;;;5035802;28;20197;-63
2022/05/30 09:56:40;;;;;;;0.98;0.70;;;11.70;99.90;;;;;;5041570;28;20235;-62
2022/05/30 09:59:19;;;;;;;1.15;0.55;;;11.60;99.90;;;;;;5038190;28;20602;-62
2022/05/30 10:01:51;;;;;;;3.10;0.57;;;11.70;99.90;;;;;;5033299;28;20235;-62
2022/05/30 10:04:31;;;;;;;2.10;1.00;;;11.70;99.90;;;;;;5040508;28;20219;-62
2022/05/30 10:07:08;;;;;;;2.30;0.90;;;11.70;99.90;;;;;;5047800;28;20193;-62
2022/05/30 10:09:41;;;;;;;1.52;0.90;;;10.00;99.90;;;;;;5032045;28;20220;-62
2022/05/30 10:12:09;;;;;;;2.35;0.82;;;11.90;99.90;;;;;;5041011;28;20221;-62
2022/05/30 10:14:39;;;;;;;2.63;0.80;;;11.90;99.90;;;;;;5041148;28;20209;-63
2022/05/30 10:17:15;;;;;;;3.60;1.10;;;12.00;99.90;;;;;;5042956;28;20693;-63
2022/05/30 10:19:48;;;;;;;1.30;0.80;;;12.00;99.90;;;;;;5038484;28;20216;-63
2022/05/30 10:28:44;;;;;;;1.60;0.90;;;12.20;99.90;;;;;;4989313;28;20207;-62
2022/05/30 10:31:22;;;;;;;1.60;0.70;;;12.20;99.90;;;;;;5043451;28;20693;-62
2022/05/30 10:34:05;;;;;;;1.33;1.00;;;12.30;99.90;;;;;;5033256;28;20205;-62
2022/05/30 10:36:42;;;;;;;1.30;1.02;;;12.10;99.90;;;;;;5036127;28;20200;-62
2022/05/30 10:39:17;;;;;;;2.95;1.10;;;12.10;99.90;;;;;;5033934;28;20616;-62
2022/05/30 10:41:50;;;;;;;1.65;1.05;;;12.10;99.90;;;;;;5048839;28;20204;-63
2022/05/30 10:44:22;;;;;;;1.17;0.80;;;12.10;99.90;;;;;;5051973;28;20576;-62
2022/05/30 10:46:57;;;;;;;1.25;1.10;;;12.40;99.90;;;;;;5027966;28;20227;-62
2022/05/30 10:49:28;;;;;;;1.55;0.80;;;12.20;99.90;;;;;;5036453;28;20220;-62
2022/05/30 10:51:59;;;;;;;1.83;1.30;;;12.20;99.90;;;;;;5038734;28;20228;-62
2022/05/30 10:54:31;;;;;;;7.45;1.00;;;12.50;99.90;;;;;;5040713;28;20215;-62
2022/05/30 10:57:09;;;;;;;4.05;0.90;;;12.50;99.90;;;;;;5040952;28;20233;-62
2022/05/30 10:59:46;;;;;;;2.22;0.80;;;12.40;99.90;;;;;;5049433;28;20189;-63
2022/05/30 11:02:19;;;;;;;1.80;0.98;;;12.40;99.90;;;;;;5047397;28;20207;-63
2022/05/30 11:04:52;;;;;;;0.65;0.65;;;12.90;99.90;;;;;;5038721;28;20284;-63
2022/05/30 11:07:38;;;;;;;1.63;0.68;;;12.30;99.90;;;;;;5034880;28;20238;-62
2022/05/30 11:10:17;;;;;;;1.38;0.88;;;12.80;99.90;;;;;;5042020;28;20732;-62
2022/05/30 11:12:52;;;;;;;2.90;1.13;;;12.40;99.90;;;;;;5030554;28;20232;-62
2022/05/30 11:15:27;;;;;;;2.38;0.93;;;12.50;99.90;;;;;;5051703;28;20287;-62
2022/05/30 11:18:01;;;;;;;0.80;0.80;;;12.50;99.90;;;;;;5043111;28;20309;-62
2022/05/30 11:20:32;;;;;;;2.92;0.80;;;12.50;99.90;;;;;;5049274;28;20212;-62
2022/05/30 11:22:59;;;;;;;3.22;1.00;;;12.50;99.90;;;;;;5039930;28;20274;-62
2022/05/30 11:25:38;;;;;;;1.58;0.90;;;12.70;99.90;;;;;;5049091;28;20223;-62
2022/05/30 11:28:17;;;;;;;4.38;1.20;;;12.70;99.90;;;;;;5026528;28;20208;-63
2022/05/30 11:30:49;;;;;;;1.33;0.90;;;12.90;99.90;;;;;;5044560;28;20982;-62
2022/05/30 11:33:39;;;;;;;1.13;0.90;;;13.00;99.90;;;;;;5036751;28;20221;-63
2022/05/30 11:36:23;;;;;;;2.33;0.77;;;12.90;99.90;;;;;;5038552;28;20205;-63
2022/05/30 11:39:03;;;;;;;3.65;0.70;;;12.90;99.90;;;;;;5026651;28;20208;-62
2022/05/30 11:41:55;;;;;;;3.10;0.70;;;13.20;99.90;;;;;;5024309;28;20216;-62
2022/05/30 11:44:46;;;;;;;1.40;1.10;;;12.70;99.90;;;;;;5035500;28;20212;-62
2022/05/30 11:47:41;;;;;;;3.60;0.95;;;12.70;99.90;;;;;;5046317;28;20207;-62
2022/05/30 11:50:29;;;;;;;1.05;0.80;;;12.60;99.90;;;;;;5008791;28;21039;-62
2022/05/30 11:53:27;;;;;;;2.63;1.00;;;12.60;99.90;;;;;;5019820;28;20232;-62
2022/05/30 11:56:06;;;;;;;1.88;0.93;;;12.60;99.90;;;;;;5022132;28;20424;-62
2022/05/30 11:58:52;;;;;;;1.13;0.82;;;12.60;99.90;;;;;;5013739;28;20209;-62
2022/05/30 12:01:24;;;;;;;2.95;1.13;;;12.80;99.90;;;;;;5047994;28;20502;-62
2022/05/30 12:04:23;;;;;;;4.38;0.80;;;12.70;99.90;;;;;;5018324;28;20468;-62
2022/05/30 12:07:07;;;;;;;2.72;0.95;;;12.70;99.90;;;;;;5046053;28;20197;-62
2022/05/30 12:09:53;;;;;;;2.38;0.77;;;12.70;99.90;;;;;;5023058;28;20688;-62
2022/05/30 12:12:42;;;;;;;1.65;1.30;;;12.50;99.90;;;;;;5014751;28;21957;-62
2022/05/30 12:15:55;;;;;;;1.60;0.68;;;12.70;99.90;;;;;;5028641;28;20785;-62
2022/05/30 12:24:37;;;;;;;3.97;1.00;;;12.80;99.90;;;;;;5019339;28;20223;-63
2022/05/30 12:27:12;;;;;;;3.20;1.13;;;12.80;99.90;;;;;;5041913;28;20291;-62
2022/05/30 12:30:00;;;;;;;2.65;0.85;;;12.50;99.90;;;;;;5012230;28;20224;-63
2022/05/30 12:32:42;;;;;;;2.58;0.80;;;14.60;99.90;;;;;;5040437;28;20694;-62
2022/05/30 12:35:31;;;;;;;1.02;0.98;;;12.60;99.90;;;;;;5030875;28;20210;-63
2022/05/30 12:38:18;;;;;;;1.92;1.13;;;12.50;99.90;;;;;;5040033;28;20204;-62
2022/05/30 12:40:54;;;;;;;3.63;1.45;;;12.30;99.90;;;;;;5018165;28;20205;-62
2022/05/30 12:43:43;;;;;;;2.03;1.08;;;12.50;99.90;;;;;;5043193;28;20209;-63
2022/05/30 12:46:19;;;;;;;2.47;1.13;;;12.30;99.90;;;;;;5030779;28;20236;-62
2022/05/30 12:49:06;;;;;;;1.95;1.10;;;12.20;99.90;;;;;;5037399;28;20196;-62
2022/05/30 12:51:59;;;;;;;3.28;1.20;;;12.20;99.90;;;;;;5027195;28;20212;-63
2022/05/30 12:54:36;;;;;;;1.88;1.15;;;12.10;99.90;;;;;;5032410;28;20721;-62
2022/05/30 12:57:10;;;;;;;1.42;1.00;;;12.10;99.90;;;;;;5031293;28;20709;-63
2022/05/30 13:00:03;;;;;;;1.48;0.75;;;12.10;99.90;;;;;;5026272;28;20201;-62
2022/05/30 13:02:56;;;;;;;6.10;1.30;;;12.10;99.90;;;;;;5023802;28;20281;-62
2022/05/30 13:05:27;;;;;;;2.83;1.30;;;12.10;99.90;;;;;;5029809;28;20846;-62
2022/05/30 13:07:54;;;;;;;3.03;1.45;;;12.00;99.90;;;;;;5024777;28;20225;-63
2022/05/30 13:10:24;;;;;;;2.13;1.40;;;11.80;99.90;;;;;;5013359;28;21040;-63
2022/05/30 13:13:03;;;;;;;3.08;1.40;;;12.00;99.90;;;;;;5029607;28;20667;-63
2022/05/30 13:15:42;;;;;;;4.90;1.25;;;12.20;99.90;;;;;;5021258;28;20225;-63
2022/05/30 13:18:18;;;;;;;1.75;1.42;;;12.10;99.90;;;;;;5024944;28;20204;-63
2022/05/30 13:20:49;;;;;;;5.35;1.92;;;12.00;99.90;;;;;;5023616;28;20204;-63
2022/05/30 13:23:17;;;;;;;4.38;1.90;;;12.10;99.90;;;;;;5040588;28;20207;-63
2022/05/30 13:25:51;;;;;;;2.33;1.60;;;12.20;99.90;;;;;;5027987;28;20211;-63
2022/05/30 13:28:21;;;;;;;4.28;2.10;;;12.40;99.90;;;;;;5016967;28;20222;-63
2022/05/30 13:30:49;;;;;;;2.30;1.35;;;12.40;99.90;;;;;;5029432;28;20205;-63